createdAt,value
2018-05-18T00:00:41.200Z,22.6
2018-05-18T00:01:31.544Z,22.6
2018-05-18T00:02:20.973Z,22.6
2018-05-18T00:03:11.670Z,22.6
2018-05-18T00:04:01.064Z,22.6
2018-05-18T00:04:51.258Z,22.6
2018-05-18T00:05:41.519Z,22.6
2018-05-18T00:06:31.315Z,22.6
2018-05-18T00:07:21.934Z,22.6
2018-05-18T00:08:11.156Z,22.5
2018-05-18T00:09:00.966Z,22.5
2018-05-18T00:09:51.275Z,22.6
2018-05-18T00:10:41.643Z,22.5
2018-05-18T00:11:32.264Z,22.5
2018-05-18T00:12:21.461Z,22.5
2018-05-18T00:13:11.817Z,22.5
2018-05-18T00:14:01.300Z,22.5
2018-05-18T00:14:52.224Z,22.5
2018-05-18T00:15:41.744Z,22.5
2018-05-18T00:16:32.666Z,22.5
2018-05-18T00:17:22.648Z,22.5
2018-05-18T00:18:11.896Z,22.6
2018-05-18T00:19:02.514Z,22.5
2018-05-18T00:19:52.060Z,22.5
2018-05-18T00:20:42.676Z,22.5
2018-05-18T00:21:32.186Z,22.5
2018-05-18T00:22:22.813Z,22.5
2018-05-18T00:23:12.540Z,22.5
2018-05-18T00:24:03.045Z,22.5
2018-05-18T00:24:52.932Z,22.5
2018-05-18T00:25:43.016Z,22.5
2018-05-18T00:26:33.076Z,22.5
2018-05-18T00:27:23.146Z,22.5
2018-05-18T00:28:13.217Z,22.5
2018-05-18T00:29:03.283Z,22.4
2018-05-18T00:29:52.378Z,22.5
2018-05-18T00:30:42.656Z,22.5
2018-05-18T00:31:32.602Z,22.4
2018-05-18T00:32:22.798Z,22.5
2018-05-18T00:33:12.853Z,22.5
2018-05-18T00:34:03.465Z,22.5
2018-05-18T00:34:53.462Z,22.5
2018-05-18T00:35:42.744Z,22.5
2018-05-18T00:36:33.660Z,22.5
2018-05-18T00:37:22.314Z,22.5
2018-05-18T00:38:13.248Z,22.5
2018-05-18T00:39:03.334Z,22.5
2018-05-18T00:39:53.510Z,22.4
2018-05-18T00:40:43.926Z,22.4
2018-05-18T00:41:34.590Z,22.5
2018-05-18T00:42:23.786Z,22.4
2018-05-18T00:43:14.096Z,22.4
2018-05-18T00:44:04.180Z,22.4
2018-05-18T00:44:54.029Z,22.4
2018-05-18T00:45:44.838Z,22.4
2018-05-18T00:46:34.096Z,22.4
2018-05-18T00:47:24.137Z,22.4
2018-05-18T00:48:14.195Z,22.5
2018-05-18T00:49:04.803Z,22.5
2018-05-18T00:49:54.578Z,22.4
2018-05-18T00:50:44.924Z,22.5
2018-05-18T00:51:34.820Z,22.4
2018-05-18T00:52:25.362Z,22.4
2018-05-18T00:53:15.426Z,22.4
2018-05-18T00:54:04.904Z,22.4
2018-05-18T00:54:55.017Z,22.5
2018-05-18T00:55:45.357Z,22.5
2018-05-18T00:56:34.320Z,22.4
2018-05-18T00:57:25.707Z,22.4
2018-05-18T00:58:15.578Z,22.5
2018-05-18T00:59:05.284Z,22.4
2018-05-18T00:59:55.091Z,22.5
2018-05-18T01:00:45.972Z,22.5
2018-05-18T01:01:35.234Z,22.5
2018-05-18T01:02:25.850Z,22.5
2018-05-18T01:03:15.613Z,22.5
2018-05-18T01:04:06.237Z,22.4
2018-05-18T01:04:56.290Z,22.4
2018-05-18T01:05:46.143Z,22.4
2018-05-18T01:06:36.215Z,22.4
2018-05-18T01:07:26.301Z,22.4
2018-05-18T01:08:15.476Z,22.4
2018-05-18T01:09:06.036Z,22.4
2018-05-18T01:09:55.878Z,22.4
2018-05-18T01:10:45.937Z,22.4
2018-05-18T01:11:36.828Z,22.4
2018-05-18T01:12:26.601Z,22.4
2018-05-18T01:13:16.962Z,22.4
2018-05-18T01:14:06.731Z,22.4
2018-05-18T01:14:56.502Z,22.4
2018-05-18T01:15:47.084Z,22.5
2018-05-18T01:16:36.690Z,22.5
2018-05-18T01:17:27.338Z,22.4
2018-05-18T01:18:16.784Z,22.4
2018-05-18T01:19:06.846Z,22.4
2018-05-18T01:19:56.966Z,22.4
2018-05-18T01:20:47.561Z,22.4
2018-05-18T01:21:37.312Z,22.4
2018-05-18T01:22:26.627Z,22.4
2018-05-18T01:23:17.446Z,22.4
2018-05-18T01:24:07.573Z,22.4
2018-05-18T01:24:57.293Z,22.4
2018-05-18T01:25:46.516Z,22.4
2018-05-18T01:26:37.183Z,22.4
2018-05-18T01:27:27.758Z,22.4
2018-05-18T01:28:17.532Z,22.4
2018-05-18T01:29:07.656Z,22.4
2018-05-18T01:29:57.976Z,22.4
2018-05-18T01:30:47.513Z,22.4
2018-05-18T01:31:38.081Z,22.4
2018-05-18T01:32:27.865Z,22.4
2018-05-18T01:33:17.961Z,22.4
2018-05-18T01:34:08.286Z,22.4
2018-05-18T01:34:58.045Z,22.4
2018-05-18T01:35:48.081Z,22.4
2018-05-18T01:36:38.221Z,22.4
2018-05-18T01:37:28.250Z,22.4
2018-05-18T01:38:17.808Z,22.4
2018-05-18T01:39:08.921Z,22.4
2018-05-18T01:39:58.753Z,22.4
2018-05-18T01:40:48.495Z,22.4
2018-05-18T01:41:39.157Z,22.4
2018-05-18T01:42:29.207Z,22.4
2018-05-18T01:43:18.701Z,22.4
2018-05-18T01:44:09.030Z,22.4
2018-05-18T01:44:58.536Z,22.4
2018-05-18T01:45:49.176Z,22.4
2018-05-18T01:46:39.512Z,22.4
2018-05-18T01:47:29.014Z,22.4
2018-05-18T01:48:19.621Z,22.4
2018-05-18T01:49:09.149Z,22.4
2018-05-18T01:49:59.190Z,22.4
2018-05-18T01:50:49.277Z,22.4
2018-05-18T01:51:39.386Z,22.4
2018-05-18T01:52:28.812Z,22.4
2018-05-18T01:53:19.755Z,22.4
2018-05-18T01:54:09.855Z,22.4
2018-05-18T01:54:59.888Z,22.4
2018-05-18T01:55:49.385Z,22.4
2018-05-18T01:56:39.711Z,22.4
2018-05-18T01:57:29.239Z,22.4
2018-05-18T01:58:19.278Z,22.4
2018-05-18T01:59:09.861Z,22.4
2018-05-18T02:00:00.011Z,22.4
2018-05-18T02:00:49.753Z,22.4
2018-05-18T02:01:40.429Z,22.4
2018-05-18T02:02:29.955Z,22.4
2018-05-18T02:03:20.292Z,22.4
2018-05-18T02:04:10.316Z,22.4
2018-05-18T02:05:00.377Z,22.4
2018-05-18T02:05:50.424Z,22.4
2018-05-18T02:06:40.264Z,22.4
2018-05-18T02:07:30.265Z,22.4
2018-05-18T02:08:20.665Z,22.4
2018-05-18T02:09:10.975Z,22.4
2018-05-18T02:10:01.276Z,22.4
2018-05-18T02:10:50.791Z,22.4
2018-05-18T02:11:40.859Z,22.3
2018-05-18T02:12:30.930Z,22.4
2018-05-18T02:13:21.586Z,22.4
2018-05-18T02:14:11.392Z,22.4
2018-05-18T02:15:01.425Z,22.4
2018-05-18T02:15:51.202Z,22.4
2018-05-18T02:16:40.993Z,22.4
2018-05-18T02:17:31.884Z,22.4
2018-05-18T02:18:21.391Z,22.4
2018-05-18T02:19:11.157Z,22.4
2018-05-18T02:20:01.819Z,22.4
2018-05-18T02:20:52.202Z,22.4
2018-05-18T02:21:40.516Z,22.4
2018-05-18T02:22:32.276Z,22.4
2018-05-18T02:23:22.417Z,22.4
2018-05-18T02:24:12.125Z,22.4
2018-05-18T02:25:01.883Z,22.4
2018-05-18T02:25:51.977Z,22.4
2018-05-18T02:26:42.044Z,22.4
2018-05-18T02:27:32.683Z,22.4
2018-05-18T02:28:22.140Z,22.4
2018-05-18T02:29:11.705Z,22.4
2018-05-18T02:30:02.338Z,22.4
2018-05-18T02:30:52.403Z,22.4
2018-05-18T02:31:43.020Z,22.3
2018-05-18T02:32:31.622Z,22.4
2018-05-18T02:33:22.273Z,22.4
2018-05-18T02:34:11.822Z,22.4
2018-05-18T02:35:02.559Z,22.4
2018-05-18T02:35:52.544Z,22.4
2018-05-18T02:36:42.264Z,22.4
2018-05-18T02:37:32.192Z,22.4
2018-05-18T02:38:22.251Z,22.4
2018-05-18T02:39:13.067Z,22.4
2018-05-18T02:40:02.883Z,22.3
2018-05-18T02:40:52.936Z,22.4
2018-05-18T02:41:42.688Z,22.3
2018-05-18T02:42:33.330Z,22.3
2018-05-18T02:43:22.851Z,22.3
2018-05-18T02:44:13.154Z,22.3
2018-05-18T02:45:03.530Z,22.3
2018-05-18T02:45:53.891Z,22.3
2018-05-18T02:46:43.109Z,22.3
2018-05-18T02:47:33.664Z,22.3
2018-05-18T02:48:23.973Z,22.3
2018-05-18T02:49:14.040Z,22.3
2018-05-18T02:50:04.421Z,22.3
2018-05-18T02:50:53.933Z,22.3
2018-05-18T02:51:43.395Z,22.3
2018-05-18T02:52:35.309Z,22.3
2018-05-18T02:53:24.698Z,22.3
2018-05-18T02:54:14.433Z,22.3
2018-05-18T02:55:04.484Z,22.3
2018-05-18T02:55:54.808Z,22.3
2018-05-18T02:56:44.870Z,22.3
2018-05-18T02:57:34.411Z,22.3
2018-05-18T02:58:24.795Z,22.3
2018-05-18T02:59:14.796Z,22.3
2018-05-18T03:00:04.604Z,22.3
2018-05-18T03:00:54.697Z,22.3
2018-05-18T03:01:45.011Z,22.3
2018-05-18T03:02:33.638Z,22.3
2018-05-18T03:03:24.878Z,22.3
2018-05-18T03:04:14.892Z,22.3
2018-05-18T03:05:05.101Z,22.3
2018-05-18T03:05:55.295Z,22.3
2018-05-18T03:06:45.125Z,22.3
2018-05-18T03:07:35.460Z,22.3
2018-05-18T03:08:25.278Z,22.3
2018-05-18T03:09:15.030Z,22.3
2018-05-18T03:10:05.069Z,22.3
2018-05-18T03:10:56.104Z,22.3
2018-05-18T03:11:45.481Z,22.3
2018-05-18T03:12:35.826Z,22.3
2018-05-18T03:13:25.605Z,22.2
2018-05-18T03:14:15.616Z,22.3
2018-05-18T03:15:06.377Z,22.3
2018-05-18T03:15:55.589Z,22.3
2018-05-18T03:16:45.884Z,22.3
2018-05-18T03:17:36.452Z,22.3
2018-05-18T03:18:25.967Z,22.3
2018-05-18T03:19:16.337Z,22.3
2018-05-18T03:20:06.133Z,22.3
2018-05-18T03:20:55.512Z,22.3
2018-05-18T03:21:46.266Z,22.3
2018-05-18T03:22:36.084Z,22.3
2018-05-18T03:23:25.676Z,22.3
2018-05-18T03:24:15.901Z,22.3
2018-05-18T03:25:20.855Z,22.2
2018-05-18T03:25:55.176Z,22.3
2018-05-18T03:26:46.419Z,22.3
2018-05-18T03:27:36.165Z,22.3
2018-05-18T03:28:26.840Z,22.2
2018-05-18T03:29:16.317Z,22.2
2018-05-18T03:30:07.170Z,22.3
2018-05-18T03:30:57.535Z,22.2
2018-05-18T03:31:47.281Z,22.3
2018-05-18T03:32:37.154Z,22.3
2018-05-18T03:33:27.207Z,22.3
2018-05-18T03:34:17.083Z,22.3
2018-05-18T03:35:06.476Z,22.3
2018-05-18T03:35:56.888Z,22.3
2018-05-18T03:36:47.642Z,22.3
2018-05-18T03:37:37.777Z,22.2
2018-05-18T03:38:28.044Z,22.3
2018-05-18T03:39:18.134Z,22.3
2018-05-18T03:40:07.913Z,22.2
2018-05-18T03:40:58.225Z,22.2
2018-05-18T03:41:47.490Z,22.3
2018-05-18T03:42:38.393Z,22.3
2018-05-18T03:43:27.890Z,22.3
2018-05-18T03:44:17.500Z,22.3
2018-05-18T03:45:08.570Z,22.3
2018-05-18T03:45:58.443Z,22.3
2018-05-18T03:46:47.271Z,22.3
2018-05-18T03:47:37.925Z,22.3
2018-05-18T03:48:28.027Z,22.3
2018-05-18T03:49:18.032Z,22.2
2018-05-18T03:50:08.399Z,22.3
2018-05-18T03:50:58.746Z,22.3
2018-05-18T03:51:48.806Z,22.2
2018-05-18T03:52:38.967Z,22.2
2018-05-18T03:53:29.191Z,22.2
2018-05-18T03:54:18.733Z,22.2
2018-05-18T03:55:09.059Z,22.2
2018-05-18T03:55:58.575Z,22.2
2018-05-18T03:56:49.193Z,22.2
2018-05-18T03:57:39.233Z,22.3
2018-05-18T03:58:29.364Z,22.3
2018-05-18T03:59:18.809Z,22.2
2018-05-18T04:00:09.549Z,22.3
2018-05-18T04:00:59.515Z,22.2
2018-05-18T04:01:49.006Z,22.2
2018-05-18T04:02:39.921Z,22.2
2018-05-18T04:03:29.971Z,22.2
2018-05-18T04:04:20.044Z,22.2
2018-05-18T04:05:09.539Z,22.2
2018-05-18T04:05:59.031Z,22.2
2018-05-18T04:06:49.404Z,22.2
2018-05-18T04:07:39.764Z,22.2
2018-05-18T04:08:29.803Z,22.2
2018-05-18T04:09:20.149Z,22.2
2018-05-18T04:10:10.185Z,22.2
2018-05-18T04:10:59.686Z,22.2
2018-05-18T04:11:50.066Z,22.2
2018-05-18T04:12:39.844Z,22.3
2018-05-18T04:13:29.627Z,22.3
2018-05-18T04:14:20.851Z,22.3
2018-05-18T04:15:10.099Z,22.3
2018-05-18T04:16:00.356Z,22.3
2018-05-18T04:16:50.976Z,22.2
2018-05-18T04:17:40.822Z,22.2
2018-05-18T04:18:31.120Z,22.3
2018-05-18T04:19:21.188Z,22.3
2018-05-18T04:20:10.408Z,22.3
2018-05-18T04:21:01.079Z,22.3
2018-05-18T04:21:51.144Z,22.3
2018-05-18T04:22:41.143Z,22.3
2018-05-18T04:23:30.463Z,22.3
2018-05-18T04:24:21.575Z,22.3
2018-05-18T04:25:11.116Z,22.3
2018-05-18T04:26:01.476Z,22.3
2018-05-18T04:26:51.775Z,22.3
2018-05-18T04:27:41.802Z,22.3
2018-05-18T04:28:31.641Z,22.3
2018-05-18T04:29:21.481Z,22.3
2018-05-18T04:30:12.834Z,22.3
2018-05-18T04:31:01.101Z,22.3
2018-05-18T04:31:51.588Z,22.3
2018-05-18T04:32:42.196Z,22.3
2018-05-18T04:33:32.056Z,22.3
2018-05-18T04:34:21.798Z,22.3
2018-05-18T04:35:12.381Z,22.4
2018-05-18T04:36:02.447Z,22.3
2018-05-18T04:36:52.497Z,22.3
2018-05-18T04:37:42.442Z,22.4
2018-05-18T04:38:31.536Z,22.4
2018-05-18T04:39:21.322Z,22.4
2018-05-18T04:40:12.816Z,22.4
2018-05-18T04:41:02.603Z,22.4
2018-05-18T04:41:51.807Z,22.4
2018-05-18T04:42:41.897Z,22.4
2018-05-18T04:43:32.720Z,22.4
2018-05-18T04:44:21.855Z,22.4
2018-05-18T04:45:12.308Z,22.4
2018-05-18T04:46:02.701Z,22.4
2018-05-18T04:46:52.267Z,22.4
2018-05-18T15:07:47.090Z,23.9
2018-05-18T15:08:36.908Z,23.9
2018-05-18T15:09:26.527Z,23.9
2018-05-18T15:10:17.407Z,23.9
2018-05-18T15:11:07.831Z,23.9
2018-05-18T15:11:57.159Z,23.9
2018-05-18T15:12:46.500Z,23.9
2018-05-18T15:13:37.332Z,23.9
2018-05-18T15:14:27.400Z,23.9
2018-05-18T15:15:16.570Z,23.9
2018-05-18T15:16:07.226Z,23.9
2018-05-18T15:16:57.104Z,23.9
2018-05-18T15:17:46.637Z,23.9
2018-05-18T15:18:37.706Z,23.9
2018-05-18T15:19:27.506Z,23.9
2018-05-18T15:20:17.982Z,23.9
2018-05-18T15:21:06.786Z,23.9
2018-05-18T15:21:56.834Z,23.9
2018-05-18T15:22:48.335Z,23.9
2018-05-18T15:23:37.607Z,23.9
2018-05-18T15:24:27.570Z,23.9
2018-05-18T15:25:17.699Z,23.9
2018-05-18T15:26:08.313Z,23.9
2018-05-18T15:26:58.081Z,23.9
2018-05-18T15:27:48.258Z,23.9
2018-05-18T15:28:38.134Z,23.9
2018-05-18T15:29:28.318Z,23.9
2018-05-18T15:30:18.971Z,23.9
2018-05-18T15:31:07.662Z,23.9
2018-05-18T15:31:58.019Z,23.9
2018-05-18T15:32:48.266Z,23.9
2018-05-18T15:33:38.711Z,23.9
2018-05-18T15:34:28.159Z,23.9
2018-05-18T15:35:19.051Z,23.9
2018-05-18T15:36:08.803Z,23.9
2018-05-18T15:36:59.115Z,23.9
2018-05-18T15:37:48.359Z,23.9
2018-05-18T15:38:39.048Z,23.9
2018-05-18T15:39:28.939Z,23.9
2018-05-18T15:40:19.777Z,23.9
2018-05-18T15:41:09.210Z,23.9
2018-05-18T15:41:59.045Z,23.9
2018-05-18T15:42:50.187Z,23.9
2018-05-18T15:43:39.713Z,23.9
2018-05-18T15:44:29.530Z,23.9
2018-05-18T15:45:18.681Z,23.9
2018-05-18T15:46:10.230Z,23.9
2018-05-18T15:46:59.433Z,23.9
2018-05-18T15:47:49.206Z,23.9
2018-05-18T15:48:40.142Z,23.9
2018-05-18T15:49:31.112Z,23.9
2018-05-18T15:50:19.642Z,23.8
2018-05-18T15:51:10.631Z,23.9
2018-05-18T15:51:59.507Z,23.8
2018-05-18T15:52:50.686Z,23.8
2018-05-18T15:53:39.361Z,23.8
2018-05-18T15:54:30.245Z,23.8
2018-05-18T15:55:20.229Z,23.8
2018-05-18T15:56:10.295Z,23.8
2018-05-18T15:57:00.391Z,23.8
2018-05-18T15:57:50.972Z,23.8
2018-05-18T15:58:39.734Z,23.8
2018-05-18T15:59:30.407Z,23.8
2018-05-18T16:00:21.179Z,23.8
2018-05-18T16:01:09.834Z,23.8
2018-05-18T16:02:01.070Z,23.8
2018-05-18T16:02:51.075Z,23.8
2018-05-18T16:03:40.597Z,23.8
2018-05-18T16:04:31.483Z,23.8
2018-05-18T16:05:20.842Z,23.8
2018-05-18T16:06:11.415Z,23.8
2018-05-18T16:07:00.899Z,23.8
2018-05-18T16:07:51.814Z,23.8
2018-05-18T16:08:40.715Z,23.7
2018-05-18T16:09:31.664Z,23.7
2018-05-18T16:10:21.112Z,23.8
2018-05-18T16:11:11.524Z,23.7
2018-05-18T16:12:01.233Z,23.7
2018-05-18T16:12:51.596Z,23.7
2018-05-18T16:13:42.049Z,23.7
2018-05-18T16:14:32.286Z,23.7
2018-05-18T16:15:21.001Z,23.7
2018-05-18T16:16:12.132Z,23.7
2018-05-18T16:17:01.979Z,23.8
2018-05-18T16:17:50.061Z,23.8
2018-05-18T16:18:40.715Z,23.7
2018-05-18T16:19:30.248Z,23.7
2018-05-18T16:20:19.730Z,23.7
2018-05-18T16:21:11.631Z,23.7
2018-05-18T16:22:00.070Z,23.7
2018-05-18T16:22:50.544Z,23.7
2018-05-18T16:23:40.840Z,23.7
2018-05-18T16:24:30.053Z,23.7
2018-05-18T16:25:20.913Z,23.8
2018-05-18T16:26:10.129Z,23.7
2018-05-18T16:27:00.758Z,23.7
2018-05-18T16:27:51.019Z,23.8
2018-05-18T16:28:40.586Z,23.8
2018-05-18T16:29:31.551Z,23.8
2018-05-18T16:30:21.316Z,23.8
2018-05-18T16:31:10.549Z,23.8
2018-05-18T16:32:01.151Z,23.8
2018-05-18T16:32:50.651Z,23.8
2018-05-18T16:33:41.568Z,23.8
2018-05-18T16:34:31.367Z,23.8
2018-05-18T16:35:21.958Z,23.8
2018-05-18T16:36:11.783Z,23.8
2018-05-18T16:37:01.805Z,23.8
2018-05-18T16:37:51.604Z,23.8
2018-05-18T16:38:41.662Z,23.8
2018-05-18T16:39:31.996Z,23.8
2018-05-18T16:40:22.332Z,23.7
2018-05-18T16:41:12.438Z,23.7
2018-05-18T16:42:01.889Z,23.7
2018-05-18T16:42:52.509Z,23.7
2018-05-18T16:43:41.994Z,23.7
2018-05-18T16:44:32.384Z,23.7
2018-05-18T16:45:22.671Z,23.7
2018-05-18T16:46:12.751Z,23.7
2018-05-18T16:47:02.535Z,23.7
2018-05-18T16:47:52.611Z,23.8
2018-05-18T16:48:42.373Z,23.8
2018-05-18T16:49:32.465Z,23.8
2018-05-18T16:50:23.091Z,23.8
2018-05-18T16:51:12.639Z,23.8
2018-05-18T16:52:02.704Z,23.8
2018-05-18T16:52:53.603Z,23.8
2018-05-18T16:53:43.078Z,23.8
2018-05-18T16:54:32.951Z,23.8
2018-05-18T16:55:23.209Z,23.8
2018-05-18T16:56:13.296Z,23.8
2018-05-18T16:57:02.522Z,23.8
2018-05-18T16:57:53.711Z,23.7
2018-05-18T16:58:43.498Z,23.7
2018-05-18T16:59:33.259Z,23.7
2018-05-18T17:00:23.321Z,23.6
2018-05-18T17:01:12.863Z,23.6
2018-05-18T17:02:03.786Z,23.6
2018-05-18T17:02:54.091Z,23.6
2018-05-18T17:03:42.999Z,23.6
2018-05-18T17:04:33.916Z,23.7
2018-05-18T17:05:23.465Z,23.6
2018-05-18T17:06:14.122Z,23.6
2018-05-18T17:07:04.359Z,23.6
2018-05-18T17:07:54.473Z,23.6
2018-05-18T17:08:43.668Z,23.6
2018-05-18T17:09:34.304Z,23.6
2018-05-18T17:10:24.637Z,23.6
2018-05-18T17:11:14.454Z,23.6
2018-05-18T17:12:04.490Z,23.6
2018-05-18T17:12:54.539Z,23.6
2018-05-18T17:13:44.868Z,23.6
2018-05-18T17:14:33.855Z,23.6
2018-05-18T17:15:24.731Z,23.7
2018-05-18T17:16:15.088Z,23.7
2018-05-18T17:17:04.393Z,23.7
2018-05-18T17:17:54.358Z,23.6
2018-05-18T17:18:44.968Z,23.6
2018-05-18T17:19:35.091Z,23.6
2018-05-18T17:20:25.083Z,23.6
2018-05-18T17:21:14.645Z,23.6
2018-05-18T17:22:05.272Z,23.6
2018-05-18T17:22:55.635Z,23.6
2018-05-18T17:23:45.423Z,23.6
2018-05-18T17:24:35.173Z,23.6
2018-05-18T17:25:25.224Z,23.6
2018-05-18T17:26:15.869Z,23.6
2018-05-18T17:27:05.339Z,23.6
2018-05-18T17:27:55.709Z,23.6
2018-05-18T17:28:46.052Z,23.6
2018-05-18T17:29:36.092Z,23.6
2018-05-18T17:30:26.191Z,23.6
2018-05-18T17:31:15.471Z,23.6
2018-05-18T17:32:06.051Z,23.6
2018-05-18T17:32:55.660Z,23.6
2018-05-18T17:33:46.147Z,23.6
2018-05-18T17:34:35.936Z,23.6
2018-05-18T17:35:26.375Z,23.6
2018-05-18T17:36:16.419Z,23.6
2018-05-18T17:37:05.842Z,23.6
2018-05-18T17:37:56.462Z,23.6
2018-05-18T17:38:46.818Z,23.6
2018-05-18T17:39:36.655Z,23.6
2018-05-18T17:40:26.660Z,23.6
2018-05-18T17:41:16.455Z,23.6
2018-05-18T17:42:07.062Z,23.6
2018-05-18T17:42:57.117Z,23.5
2018-05-18T17:43:46.725Z,23.5
2018-05-18T17:44:36.775Z,23.6
2018-05-18T17:45:27.134Z,23.6
2018-05-18T17:46:17.116Z,23.6
2018-05-18T17:47:06.892Z,23.6
2018-05-18T17:47:57.017Z,23.5
2018-05-18T17:48:46.906Z,23.5
2018-05-18T17:49:37.363Z,23.5
2018-05-18T17:50:27.419Z,23.5
2018-05-18T17:51:17.765Z,23.5
2018-05-18T17:52:07.670Z,23.5
2018-05-18T17:52:57.925Z,23.5
2018-05-18T17:53:47.428Z,23.5
2018-05-18T17:54:37.918Z,23.5
2018-05-18T17:55:27.839Z,23.5
2018-05-18T17:56:18.201Z,23.5
2018-05-18T17:57:08.001Z,23.5
2018-05-18T17:57:57.775Z,23.5
2018-05-18T17:58:48.357Z,23.5
2018-05-18T17:59:38.399Z,23.5
2018-05-18T18:00:27.685Z,23.5
2018-05-18T18:01:17.780Z,23.5
2018-05-18T18:02:08.628Z,23.5
2018-05-18T18:02:57.861Z,23.6
2018-05-18T18:03:48.210Z,23.6
2018-05-18T18:04:38.769Z,23.6
2018-05-18T18:05:28.880Z,23.6
2018-05-18T18:06:18.705Z,23.6
2018-05-18T18:07:09.044Z,23.7
2018-05-18T18:07:59.626Z,23.6
2018-05-18T18:08:47.705Z,23.6
2018-05-18T18:09:38.897Z,23.6
2018-05-18T18:10:28.742Z,23.6
2018-05-18T18:11:19.054Z,23.6
2018-05-18T18:12:09.354Z,23.6
2018-05-18T18:12:59.158Z,23.6
2018-05-18T18:13:49.276Z,23.6
2018-05-18T18:14:38.991Z,23.6
2018-05-18T18:15:28.802Z,23.5
2018-05-18T18:16:19.445Z,23.5
2018-05-18T18:17:09.087Z,23.4
2018-05-18T18:17:59.845Z,23.4
2018-05-18T18:18:49.640Z,23.4
2018-05-18T18:19:39.929Z,23.5
2018-05-18T18:20:30.004Z,23.5
2018-05-18T18:21:19.798Z,23.5
2018-05-18T18:22:10.243Z,23.5
2018-05-18T18:22:59.969Z,23.5
2018-05-18T18:23:50.000Z,23.6
2018-05-18T18:24:39.404Z,23.6
2018-05-18T18:25:29.908Z,23.6
2018-05-18T18:26:20.603Z,23.6
2018-05-18T18:27:10.068Z,23.6
2018-05-18T18:28:00.444Z,23.6
2018-05-18T18:28:50.481Z,23.6
2018-05-18T18:29:40.277Z,23.6
2018-05-18T18:30:30.042Z,23.6
2018-05-18T18:31:20.648Z,23.6
2018-05-18T18:32:10.359Z,23.6
2018-05-18T18:33:00.581Z,23.6
2018-05-18T18:33:50.865Z,23.6
2018-05-18T18:34:41.000Z,23.6
2018-05-18T18:35:31.012Z,23.6
2018-05-18T18:36:22.140Z,23.6
2018-05-18T18:37:11.581Z,23.6
2018-05-18T18:38:01.175Z,23.6
2018-05-18T18:38:51.274Z,23.6
2018-05-18T18:39:41.068Z,23.6
2018-05-18T18:40:30.454Z,23.6
2018-05-18T18:41:21.108Z,23.6
2018-05-18T18:42:11.520Z,23.6
2018-05-18T18:43:01.298Z,23.6
2018-05-18T18:43:51.646Z,23.6
2018-05-18T18:44:41.431Z,23.6
2018-05-18T18:45:30.930Z,23.6
2018-05-18T18:46:21.553Z,23.6
2018-05-18T18:47:11.920Z,23.6
2018-05-18T18:48:01.983Z,23.6
2018-05-18T18:48:52.065Z,23.6
2018-05-18T18:49:42.393Z,23.6
2018-05-18T18:50:32.707Z,23.6
2018-05-18T18:51:22.232Z,23.6
2018-05-18T18:52:13.200Z,23.6
2018-05-18T18:53:01.516Z,23.6
2018-05-18T18:53:52.096Z,23.6
2018-05-18T18:54:42.480Z,23.6
2018-05-18T18:55:31.963Z,23.6
2018-05-18T18:56:22.071Z,23.6
2018-05-18T18:57:12.140Z,23.6
2018-05-18T18:58:02.763Z,23.6
2018-05-18T18:58:52.485Z,23.6
2018-05-18T18:59:42.587Z,23.6
2018-05-18T19:00:32.664Z,23.6
2018-05-18T19:01:22.690Z,23.6
2018-05-18T19:02:13.026Z,23.6
2018-05-18T19:03:03.142Z,23.6
2018-05-18T19:03:52.615Z,23.6
2018-05-18T19:04:43.623Z,23.6
2018-05-18T19:05:33.617Z,23.6
2018-05-18T19:06:23.058Z,23.6
2018-05-18T19:07:13.162Z,23.6
2018-05-18T19:08:03.453Z,23.6
2018-05-18T19:08:53.614Z,23.6
2018-05-18T19:09:43.942Z,23.6
2018-05-18T19:10:33.732Z,23.6
2018-05-18T19:11:24.069Z,23.6
2018-05-18T19:12:13.879Z,23.6
2018-05-18T19:13:03.658Z,23.6
2018-05-18T19:13:53.458Z,23.5
2018-05-18T19:14:44.380Z,23.5
2018-05-18T19:15:34.341Z,23.4
2018-05-18T19:16:24.114Z,23.4
2018-05-18T19:17:13.348Z,23.4
2018-05-18T19:18:04.253Z,23.3
2018-05-18T19:18:54.696Z,23.3
2018-05-18T19:19:44.087Z,23.4
2018-05-18T19:20:34.482Z,23.4
2018-05-18T19:21:24.532Z,23.4
2018-05-18T19:22:14.641Z,23.4
2018-05-18T19:23:04.639Z,23.4
2018-05-18T19:23:54.221Z,23.5
2018-05-18T19:24:44.560Z,23.5
2018-05-18T19:25:34.564Z,23.5
2018-05-18T19:26:24.610Z,23.5
2018-05-18T19:27:14.766Z,23.5
2018-05-18T19:28:05.096Z,23.6
2018-05-18T19:28:54.859Z,23.6
2018-05-18T19:29:45.473Z,23.6
2018-05-18T19:30:34.745Z,23.6
2018-05-18T19:31:25.632Z,23.6
2018-05-18T19:32:14.823Z,23.6
2018-05-18T19:33:05.430Z,23.6
2018-05-18T19:33:54.966Z,23.5
2018-05-18T19:34:45.327Z,23.6
2018-05-18T19:35:35.610Z,23.6
2018-05-18T19:36:26.234Z,23.6
2018-05-18T19:37:15.140Z,23.6
2018-05-18T19:38:05.263Z,23.6
2018-05-18T19:38:55.383Z,23.6
2018-05-18T19:39:45.684Z,23.6
2018-05-18T19:40:36.085Z,23.6
2018-05-18T19:41:26.079Z,23.6
2018-05-18T19:42:15.885Z,23.6
2018-05-18T19:43:05.892Z,23.6
2018-05-18T19:43:55.741Z,23.6
2018-05-18T19:44:45.454Z,23.6
2018-05-18T19:45:36.429Z,23.6
2018-05-18T19:46:25.309Z,23.6
2018-05-18T19:47:16.245Z,23.6
2018-05-18T19:48:06.340Z,23.6
2018-05-18T19:48:56.945Z,23.6
2018-05-18T19:49:46.746Z,23.6
2018-05-18T19:50:36.765Z,23.6
2018-05-18T19:51:26.555Z,23.5
2018-05-18T19:52:16.929Z,23.6
2018-05-18T19:53:06.979Z,23.5
2018-05-18T19:53:57.096Z,23.6
2018-05-18T19:54:46.825Z,23.5
2018-05-18T19:55:37.190Z,23.6
2018-05-18T19:56:27.218Z,23.6
2018-05-18T19:57:17.549Z,23.6
2018-05-18T19:58:07.053Z,23.6
2018-05-18T19:58:57.141Z,23.6
2018-05-18T19:59:47.225Z,23.5
2018-05-18T20:00:37.835Z,23.6
2018-05-18T20:01:27.337Z,23.6
2018-05-18T20:02:17.687Z,23.5
2018-05-18T20:03:07.734Z,23.6
2018-05-18T20:03:57.512Z,23.6
2018-05-18T20:04:47.627Z,23.6
2018-05-18T20:05:38.293Z,23.5
2018-05-18T20:06:27.245Z,23.6
2018-05-18T20:07:17.586Z,23.6
2018-05-18T20:08:08.194Z,23.6
2018-05-18T20:08:58.009Z,23.5
2018-05-18T20:09:48.270Z,23.5
2018-05-18T20:10:38.536Z,23.6
2018-05-18T20:11:28.548Z,23.5
2018-05-18T20:12:18.977Z,23.5
2018-05-18T20:13:08.201Z,23.6
2018-05-18T20:13:58.125Z,23.5
2018-05-18T20:14:48.532Z,23.5
2018-05-18T20:15:38.337Z,23.5
2018-05-18T20:16:28.399Z,23.5
2018-05-18T20:17:18.754Z,23.5
2018-05-18T20:18:08.542Z,23.5
2018-05-18T20:18:58.399Z,23.5
2018-05-18T20:19:49.873Z,23.5
2018-05-18T20:20:39.284Z,23.5
2018-05-18T20:21:28.776Z,23.5
2018-05-18T20:22:18.876Z,23.5
2018-05-18T20:23:08.969Z,23.5
2018-05-18T20:23:59.580Z,23.5
2018-05-18T20:24:49.061Z,23.5
2018-05-18T20:25:39.120Z,23.5
2018-05-18T20:26:29.212Z,23.5
2018-05-18T20:27:19.344Z,23.5
2018-05-18T20:28:09.611Z,23.5
2018-05-18T20:28:59.976Z,23.5
2018-05-18T20:29:49.453Z,23.5
2018-05-18T20:30:40.074Z,23.5
2018-05-18T20:31:29.843Z,23.5
2018-05-18T20:32:19.623Z,23.5
2018-05-18T20:33:09.686Z,23.5
2018-05-18T20:33:59.560Z,23.4
2018-05-18T20:34:49.622Z,23.5
2018-05-18T20:35:40.388Z,23.5
2018-05-18T20:36:30.509Z,23.5
2018-05-18T20:37:20.017Z,23.5
2018-05-18T20:38:10.754Z,23.5
2018-05-18T20:39:00.126Z,23.5
2018-05-18T20:39:49.934Z,23.5
2018-05-18T20:40:40.238Z,23.5
2018-05-18T20:41:30.699Z,23.5
2018-05-18T20:42:20.142Z,23.4
2018-05-18T20:43:10.814Z,23.4
2018-05-18T20:44:00.565Z,23.4
2018-05-18T20:44:50.672Z,23.4
2018-05-18T20:45:39.825Z,23.4
2018-05-18T20:46:30.712Z,23.4
2018-05-18T20:47:21.369Z,23.4
2018-05-18T20:48:10.857Z,23.4
2018-05-18T20:49:01.191Z,23.4
2018-05-18T20:49:51.573Z,23.4
2018-05-18T20:50:41.405Z,23.4
2018-05-18T20:51:31.387Z,23.4
2018-05-18T20:52:21.232Z,23.4
2018-05-18T20:53:11.525Z,23.4
2018-05-18T20:54:01.631Z,23.4
2018-05-18T20:54:51.891Z,23.4
2018-05-18T20:55:41.997Z,23.4
2018-05-18T20:56:31.809Z,23.4
2018-05-18T20:57:22.159Z,23.4
2018-05-18T20:58:11.608Z,23.4
2018-05-18T20:59:01.770Z,23.4
2018-05-18T20:59:51.765Z,23.4
2018-05-18T21:00:42.077Z,23.4
2018-05-18T21:01:32.165Z,23.4
2018-05-18T21:02:21.946Z,23.4
2018-05-18T21:03:12.349Z,23.4
2018-05-18T21:04:01.787Z,23.4
2018-05-18T21:04:51.857Z,23.4
2018-05-18T21:05:42.473Z,23.4
2018-05-18T21:06:32.812Z,23.4
2018-05-18T21:07:22.610Z,23.4
2018-05-18T21:08:12.716Z,23.4
2018-05-18T21:09:02.764Z,23.4
2018-05-18T21:09:53.113Z,23.4
2018-05-18T21:10:43.692Z,23.4
2018-05-18T21:11:32.908Z,23.4
2018-05-18T21:12:22.145Z,23.4
2018-05-18T21:13:13.053Z,23.4
2018-05-18T21:14:02.639Z,23.4
2018-05-18T21:14:53.246Z,23.4
2018-05-18T21:15:42.696Z,23.4
2018-05-18T21:16:33.603Z,23.4
2018-05-18T21:17:23.471Z,23.4
2018-05-18T21:18:13.158Z,23.4
2018-05-18T21:19:03.798Z,23.4
2018-05-18T21:19:52.743Z,23.4
2018-05-18T21:20:43.721Z,23.4
2018-05-18T21:21:33.138Z,23.4
2018-05-18T21:22:23.804Z,23.4
2018-05-18T21:23:13.277Z,23.4
2018-05-18T21:24:03.459Z,23.4
2018-05-18T21:24:53.708Z,23.4
2018-05-18T21:25:44.043Z,23.4
2018-05-18T21:26:34.125Z,23.4